sensor_id;sensor_type;location;lat;lon;timestamp;P1;durP1;ratioP1;P2;durP2;ratioP2
75997;SDS011;64685;48.762;44.822;2024-03-23T03:24:26;15.15;;;9.30;;
75997;SDS011;64685;48.762;44.822;2024-03-23T03:37:57;15.43;;;7.43;;
75997;SDS011;64685;48.762;44.822;2024-03-23T03:43:47;11.63;;;5.68;;
75997;SDS011;64685;48.762;44.822;2024-03-23T03:49:45;12.20;;;5.05;;
75997;SDS011;64685;48.762;44.822;2024-03-23T03:55:06;12.05;;;5.45;;
75997;SDS011;64685;48.762;44.822;2024-03-23T04:00:15;9.70;;;5.15;;
75997;SDS011;64685;48.762;44.822;2024-03-23T04:05:25;9.80;;;4.57;;
75997;SDS011;64685;48.762;44.822;2024-03-23T04:10:31;8.82;;;5.30;;
75997;SDS011;64685;48.762;44.822;2024-03-23T04:15:33;11.52;;;5.47;;
75997;SDS011;64685;48.762;44.822;2024-03-23T04:20:38;12.88;;;6.05;;
75997;SDS011;64685;48.762;44.822;2024-03-23T04:25:41;8.55;;;4.93;;
75997;SDS011;64685;48.762;44.822;2024-03-23T04:30:43;10.57;;;5.43;;
75997;SDS011;64685;48.762;44.822;2024-03-23T04:35:48;11.68;;;4.93;;
75997;SDS011;64685;48.762;44.822;2024-03-23T04:40:58;18.50;;;8.25;;
75997;SDS011;64685;48.762;44.822;2024-03-23T04:46:01;22.77;;;8.00;;
75997;SDS011;64685;48.762;44.822;2024-03-23T04:51:04;25.02;;;10.15;;
75997;SDS011;64685;48.762;44.822;2024-03-23T04:56:06;22.52;;;9.02;;
75997;SDS011;64685;48.762;44.822;2024-03-23T05:01:09;17.17;;;8.10;;
75997;SDS011;64685;48.762;44.822;2024-03-23T05:06:12;16.95;;;9.23;;
75997;SDS011;64685;48.762;44.822;2024-03-23T05:11:15;15.52;;;7.45;;
75997;SDS011;64685;48.762;44.822;2024-03-23T05:16:17;17.33;;;7.60;;
75997;SDS011;64685;48.762;44.822;2024-03-23T05:21:19;18.17;;;6.55;;
75997;SDS011;64685;48.762;44.822;2024-03-23T05:26:22;16.83;;;6.03;;
75997;SDS011;64685;48.762;44.822;2024-03-23T05:31:25;9.95;;;4.32;;
75997;SDS011;64685;48.762;44.822;2024-03-23T05:36:28;13.07;;;5.40;;
75997;SDS011;64685;48.762;44.822;2024-03-23T05:41:31;12.40;;;5.00;;
75997;SDS011;64685;48.762;44.822;2024-03-23T05:46:33;10.93;;;4.82;;
75997;SDS011;64685;48.762;44.822;2024-03-23T05:51:37;8.45;;;4.68;;
75997;SDS011;64685;48.762;44.822;2024-03-23T05:56:39;11.65;;;4.82;;
75997;SDS011;64685;48.762;44.822;2024-03-23T06:01:41;9.15;;;4.38;;
75997;SDS011;64685;48.762;44.822;2024-03-23T06:06:44;8.32;;;4.32;;
75997;SDS011;64685;48.762;44.822;2024-03-23T06:11:48;9.18;;;4.13;;
75997;SDS011;64685;48.762;44.822;2024-03-23T06:16:51;8.00;;;4.10;;
75997;SDS011;64685;48.762;44.822;2024-03-23T06:21:53;9.30;;;4.20;;
75997;SDS011;64685;48.762;44.822;2024-03-23T06:26:58;7.10;;;4.00;;
75997;SDS011;64685;48.762;44.822;2024-03-23T06:32:00;10.45;;;4.47;;
75997;SDS011;64685;48.762;44.822;2024-03-23T06:37:02;11.45;;;5.57;;
75997;SDS011;64685;48.762;44.822;2024-03-23T06:42:05;11.13;;;5.70;;
75997;SDS011;64685;48.762;44.822;2024-03-23T06:47:07;13.95;;;7.35;;
75997;SDS011;64685;48.762;44.822;2024-03-23T06:52:10;18.88;;;7.85;;
75997;SDS011;64685;48.762;44.822;2024-03-23T06:57:12;15.25;;;7.45;;
75997;SDS011;64685;48.762;44.822;2024-03-23T07:02:14;20.35;;;8.10;;
75997;SDS011;64685;48.762;44.822;2024-03-23T07:07:17;19.98;;;8.18;;
75997;SDS011;64685;48.762;44.822;2024-03-23T07:12:19;16.27;;;9.40;;
75997;SDS011;64685;48.762;44.822;2024-03-23T07:22:25;20.05;;;9.60;;
75997;SDS011;64685;48.762;44.822;2024-03-23T07:27:28;15.50;;;9.38;;
75997;SDS011;64685;48.762;44.822;2024-03-23T07:32:30;15.93;;;7.47;;
75997;SDS011;64685;48.762;44.822;2024-03-23T07:37:33;12.55;;;7.55;;
75997;SDS011;64685;48.762;44.822;2024-03-23T07:42:35;13.43;;;6.63;;
75997;SDS011;64685;48.762;44.822;2024-03-23T07:47:37;15.05;;;6.90;;
75997;SDS011;64685;48.762;44.822;2024-03-23T07:52:39;14.55;;;7.22;;
75997;SDS011;64685;48.762;44.822;2024-03-23T07:57:42;11.55;;;6.15;;
75997;SDS011;64685;48.762;44.822;2024-03-23T08:02:44;12.00;;;5.85;;
75997;SDS011;64685;48.762;44.822;2024-03-23T08:07:48;11.57;;;5.40;;
75997;SDS011;64685;48.762;44.822;2024-03-23T08:12:52;10.15;;;4.40;;
75997;SDS011;64685;48.762;44.822;2024-03-23T08:17:55;11.80;;;5.97;;
75997;SDS011;64685;48.762;44.822;2024-03-23T08:22:57;8.18;;;3.85;;
75997;SDS011;64685;48.762;44.822;2024-03-23T08:27:59;7.90;;;3.58;;
75997;SDS011;64685;48.762;44.822;2024-03-23T08:33:01;7.88;;;3.80;;
75997;SDS011;64685;48.762;44.822;2024-03-23T08:38:04;7.50;;;3.15;;
75997;SDS011;64685;48.762;44.822;2024-03-23T08:43:09;9.85;;;4.25;;
75997;SDS011;64685;48.762;44.822;2024-03-23T08:48:11;12.75;;;4.57;;
75997;SDS011;64685;48.762;44.822;2024-03-23T08:53:14;9.02;;;5.43;;
75997;SDS011;64685;48.762;44.822;2024-03-23T08:58:16;11.40;;;5.20;;
75997;SDS011;64685;48.762;44.822;2024-03-23T09:03:22;11.30;;;4.97;;
75997;SDS011;64685;48.762;44.822;2024-03-23T09:08:25;12.38;;;5.30;;
75997;SDS011;64685;48.762;44.822;2024-03-23T09:13:28;14.95;;;5.10;;
75997;SDS011;64685;48.762;44.822;2024-03-23T09:18:31;11.18;;;4.65;;
75997;SDS011;64685;48.762;44.822;2024-03-23T09:23:34;12.93;;;5.25;;
75997;SDS011;64685;48.762;44.822;2024-03-23T09:28:36;13.98;;;5.88;;
75997;SDS011;64685;48.762;44.822;2024-03-23T09:33:40;12.52;;;3.95;;
75997;SDS011;64685;48.762;44.822;2024-03-23T09:38:43;12.73;;;3.67;;
75997;SDS011;64685;48.762;44.822;2024-03-23T09:43:47;8.55;;;4.30;;
75997;SDS011;64685;48.762;44.822;2024-03-23T09:53:53;10.73;;;3.78;;
75997;SDS011;64685;48.762;44.822;2024-03-23T09:59:02;11.77;;;4.68;;
75997;SDS011;64685;48.762;44.822;2024-03-23T10:04:04;9.32;;;3.78;;
75997;SDS011;64685;48.762;44.822;2024-03-23T10:09:16;10.98;;;4.18;;
75997;SDS011;64685;48.762;44.822;2024-03-23T10:14:29;8.88;;;4.00;;
75997;SDS011;64685;48.762;44.822;2024-03-23T10:19:32;11.02;;;4.68;;
75997;SDS011;64685;48.762;44.822;2024-03-23T10:24:34;11.77;;;5.65;;
75997;SDS011;64685;48.762;44.822;2024-03-23T10:29:36;9.93;;;4.50;;
75997;SDS011;64685;48.762;44.822;2024-03-23T10:34:38;9.77;;;4.50;;
75997;SDS011;64685;48.762;44.822;2024-03-23T10:39:41;12.18;;;4.68;;
75997;SDS011;64685;48.762;44.822;2024-03-23T10:44:43;10.80;;;4.82;;
75997;SDS011;64685;48.762;44.822;2024-03-23T10:49:45;15.23;;;5.32;;
75997;SDS011;64685;48.762;44.822;2024-03-23T10:54:50;10.80;;;4.68;;
75997;SDS011;64685;48.762;44.822;2024-03-23T10:59:54;12.75;;;4.93;;
75997;SDS011;64685;48.762;44.822;2024-03-23T11:04:57;12.20;;;4.53;;
75997;SDS011;64685;48.762;44.822;2024-03-23T11:10:00;10.98;;;4.47;;
75997;SDS011;64685;48.762;44.822;2024-03-23T11:15:13;12.10;;;4.55;;
75997;SDS011;64685;48.762;44.822;2024-03-23T11:20:16;10.75;;;4.90;;
75997;SDS011;64685;48.762;44.822;2024-03-23T11:25:34;11.52;;;4.13;;
75997;SDS011;64685;48.762;44.822;2024-03-23T11:30:37;10.00;;;4.47;;
75997;SDS011;64685;48.762;44.822;2024-03-23T11:35:43;11.23;;;4.10;;
75997;SDS011;64685;48.762;44.822;2024-03-23T11:40:46;9.38;;;3.80;;
75997;SDS011;64685;48.762;44.822;2024-03-23T11:45:52;13.38;;;4.68;;
75997;SDS011;64685;48.762;44.822;2024-03-23T11:50:57;8.77;;;3.60;;
75997;SDS011;64685;48.762;44.822;2024-03-23T11:55:59;10.15;;;3.83;;
75997;SDS011;64685;48.762;44.822;2024-03-23T12:01:05;12.15;;;4.93;;
75997;SDS011;64685;48.762;44.822;2024-03-23T12:06:12;10.80;;;4.63;;
75997;SDS011;64685;48.762;44.822;2024-03-23T12:11:21;9.07;;;4.07;;
75997;SDS011;64685;48.762;44.822;2024-03-23T12:16:24;9.63;;;5.25;;
75997;SDS011;64685;48.762;44.822;2024-03-23T12:21:29;10.45;;;4.35;;
75997;SDS011;64685;48.762;44.822;2024-03-23T12:26:31;13.00;;;3.70;;
75997;SDS011;64685;48.762;44.822;2024-03-23T12:31:33;9.27;;;4.35;;
75997;SDS011;64685;48.762;44.822;2024-03-23T12:36:36;12.57;;;4.57;;
75997;SDS011;64685;48.762;44.822;2024-03-23T12:41:38;14.20;;;4.85;;
75997;SDS011;64685;48.762;44.822;2024-03-23T12:46:43;11.10;;;3.83;;
75997;SDS011;64685;48.762;44.822;2024-03-23T12:51:48;12.65;;;5.25;;
75997;SDS011;64685;48.762;44.822;2024-03-23T12:56:59;9.85;;;4.63;;
75997;SDS011;64685;48.762;44.822;2024-03-23T13:02:01;10.95;;;3.78;;
75997;SDS011;64685;48.762;44.822;2024-03-23T13:07:04;10.85;;;4.50;;
75997;SDS011;64685;48.762;44.822;2024-03-23T13:12:06;12.13;;;5.00;;
75997;SDS011;64685;48.762;44.822;2024-03-23T13:17:09;13.00;;;5.22;;
75997;SDS011;64685;48.762;44.822;2024-03-23T13:22:11;11.35;;;5.53;;
75997;SDS011;64685;48.762;44.822;2024-03-23T13:27:14;13.80;;;5.18;;
75997;SDS011;64685;48.762;44.822;2024-03-23T13:32:16;11.43;;;3.65;;
75997;SDS011;64685;48.762;44.822;2024-03-23T13:37:18;9.18;;;4.00;;
75997;SDS011;64685;48.762;44.822;2024-03-23T13:42:21;10.20;;;4.15;;
75997;SDS011;64685;48.762;44.822;2024-03-23T13:47:27;11.25;;;4.72;;
75997;SDS011;64685;48.762;44.822;2024-03-23T13:52:29;11.48;;;4.88;;
75997;SDS011;64685;48.762;44.822;2024-03-23T13:57:33;10.15;;;4.35;;
75997;SDS011;64685;48.762;44.822;2024-03-23T14:02:35;21.42;;;5.75;;
75997;SDS011;64685;48.762;44.822;2024-03-23T14:07:38;9.43;;;4.22;;
75997;SDS011;64685;48.762;44.822;2024-03-23T14:12:40;10.32;;;4.32;;
75997;SDS011;64685;48.762;44.822;2024-03-23T14:17:43;12.63;;;4.32;;
75997;SDS011;64685;48.762;44.822;2024-03-23T14:22:45;8.93;;;4.47;;
75997;SDS011;64685;48.762;44.822;2024-03-23T14:27:48;14.27;;;6.47;;
75997;SDS011;64685;48.762;44.822;2024-03-23T14:32:50;10.85;;;5.10;;
75997;SDS011;64685;48.762;44.822;2024-03-23T14:37:52;10.90;;;4.70;;
75997;SDS011;64685;48.762;44.822;2024-03-23T14:42:55;9.60;;;4.65;;
75997;SDS011;64685;48.762;44.822;2024-03-23T14:47:57;12.45;;;4.30;;
75997;SDS011;64685;48.762;44.822;2024-03-23T14:53:00;11.07;;;4.03;;
75997;SDS011;64685;48.762;44.822;2024-03-23T14:58:02;10.70;;;4.93;;
75997;SDS011;64685;48.762;44.822;2024-03-23T15:03:05;9.20;;;4.65;;
75997;SDS011;64685;48.762;44.822;2024-03-23T15:08:08;8.43;;;4.10;;
75997;SDS011;64685;48.762;44.822;2024-03-23T15:13:10;11.07;;;4.47;;
75997;SDS011;64685;48.762;44.822;2024-03-23T15:18:13;9.98;;;4.43;;
75997;SDS011;64685;48.762;44.822;2024-03-23T15:23:26;11.45;;;4.35;;
75997;SDS011;64685;48.762;44.822;2024-03-23T15:28:29;9.77;;;3.83;;
75997;SDS011;64685;48.762;44.822;2024-03-23T15:33:50;10.52;;;4.18;;
75997;SDS011;64685;48.762;44.822;2024-03-23T15:38:53;12.50;;;3.83;;
75997;SDS011;64685;48.762;44.822;2024-03-23T15:43:56;11.27;;;4.40;;
75997;SDS011;64685;48.762;44.822;2024-03-23T15:48:59;10.65;;;3.90;;
75997;SDS011;64685;48.762;44.822;2024-03-23T15:54:02;11.05;;;4.43;;
75997;SDS011;64685;48.762;44.822;2024-03-23T15:59:05;11.00;;;4.82;;
75997;SDS011;64685;48.762;44.822;2024-03-23T16:04:07;11.48;;;4.70;;
75997;SDS011;64685;48.762;44.822;2024-03-23T16:09:10;16.83;;;6.43;;
75997;SDS011;64685;48.762;44.822;2024-03-23T16:14:12;10.82;;;5.10;;
75997;SDS011;64685;48.762;44.822;2024-03-23T16:19:15;14.35;;;5.05;;
75997;SDS011;64685;48.762;44.822;2024-03-23T16:24:18;8.65;;;4.05;;
75997;SDS011;64685;48.762;44.822;2024-03-23T16:29:20;13.88;;;5.97;;
75997;SDS011;64685;48.762;44.822;2024-03-23T16:34:23;13.13;;;5.40;;
75997;SDS011;64685;48.762;44.822;2024-03-23T16:39:26;10.57;;;5.28;;
75997;SDS011;64685;48.762;44.822;2024-03-23T16:44:28;13.65;;;5.55;;
75997;SDS011;64685;48.762;44.822;2024-03-23T16:49:31;10.60;;;5.07;;
75997;SDS011;64685;48.762;44.822;2024-03-23T16:54:33;15.82;;;5.55;;
75997;SDS011;64685;48.762;44.822;2024-03-23T16:59:36;14.90;;;6.40;;
75997;SDS011;64685;48.762;44.822;2024-03-23T17:04:38;18.65;;;7.07;;
75997;SDS011;64685;48.762;44.822;2024-03-23T17:09:46;13.48;;;5.93;;
75997;SDS011;64685;48.762;44.822;2024-03-23T17:14:49;15.70;;;7.75;;
75997;SDS011;64685;48.762;44.822;2024-03-23T17:19:58;14.18;;;6.25;;
75997;SDS011;64685;48.762;44.822;2024-03-23T17:25:05;14.30;;;6.85;;
75997;SDS011;64685;48.762;44.822;2024-03-23T17:30:08;15.07;;;6.40;;
75997;SDS011;64685;48.762;44.822;2024-03-23T17:35:12;16.40;;;6.55;;
75997;SDS011;64685;48.762;44.822;2024-03-23T17:40:15;20.65;;;6.50;;
75997;SDS011;64685;48.762;44.822;2024-03-23T17:45:18;14.13;;;6.18;;
75997;SDS011;64685;48.762;44.822;2024-03-23T17:50:21;15.95;;;7.00;;
75997;SDS011;64685;48.762;44.822;2024-03-23T17:55:26;14.45;;;6.28;;
75997;SDS011;64685;48.762;44.822;2024-03-23T18:00:31;16.70;;;6.30;;
75997;SDS011;64685;48.762;44.822;2024-03-23T18:05:34;15.23;;;6.38;;
75997;SDS011;64685;48.762;44.822;2024-03-23T18:10:36;11.30;;;5.60;;
75997;SDS011;64685;48.762;44.822;2024-03-23T18:15:39;15.20;;;6.35;;
75997;SDS011;64685;48.762;44.822;2024-03-23T18:20:41;12.90;;;5.72;;
75997;SDS011;64685;48.762;44.822;2024-03-23T18:25:53;14.55;;;5.53;;
75997;SDS011;64685;48.762;44.822;2024-03-23T18:30:59;16.05;;;6.63;;
75997;SDS011;64685;48.762;44.822;2024-03-23T18:36:03;12.65;;;6.22;;
75997;SDS011;64685;48.762;44.822;2024-03-23T18:41:06;14.60;;;6.15;;
75997;SDS011;64685;48.762;44.822;2024-03-23T18:46:08;16.27;;;5.93;;
75997;SDS011;64685;48.762;44.822;2024-03-23T18:51:11;13.32;;;5.90;;
75997;SDS011;64685;48.762;44.822;2024-03-23T18:56:14;12.00;;;5.72;;
75997;SDS011;64685;48.762;44.822;2024-03-23T19:01:18;14.65;;;7.18;;
75997;SDS011;64685;48.762;44.822;2024-03-23T19:06:24;11.43;;;5.90;;
75997;SDS011;64685;48.762;44.822;2024-03-23T19:11:28;14.48;;;6.20;;
75997;SDS011;64685;48.762;44.822;2024-03-23T19:16:33;16.63;;;6.88;;
75997;SDS011;64685;48.762;44.822;2024-03-23T19:21:36;13.82;;;6.18;;
75997;SDS011;64685;48.762;44.822;2024-03-23T19:26:38;13.80;;;6.35;;
75997;SDS011;64685;48.762;44.822;2024-03-23T19:31:46;16.90;;;7.47;;
75997;SDS011;64685;48.762;44.822;2024-03-23T19:36:49;15.90;;;7.82;;
75997;SDS011;64685;48.762;44.822;2024-03-23T19:41:52;22.05;;;7.28;;
75997;SDS011;64685;48.762;44.822;2024-03-23T19:47:00;19.88;;;7.38;;
75997;SDS011;64685;48.762;44.822;2024-03-23T19:52:03;16.58;;;7.43;;
75997;SDS011;64685;48.762;44.822;2024-03-23T19:57:09;17.73;;;6.95;;
75997;SDS011;64685;48.762;44.822;2024-03-23T20:02:12;18.90;;;6.65;;
75997;SDS011;64685;48.762;44.822;2024-03-23T20:07:15;14.50;;;6.90;;
75997;SDS011;64685;48.762;44.822;2024-03-23T20:12:21;10.48;;;5.40;;
75997;SDS011;64685;48.762;44.822;2024-03-23T20:17:26;13.45;;;6.22;;
75997;SDS011;64685;48.762;44.822;2024-03-23T20:22:32;13.32;;;5.75;;
75997;SDS011;64685;48.762;44.822;2024-03-23T20:27:35;13.50;;;6.32;;
75997;SDS011;64685;48.762;44.822;2024-03-23T20:32:40;11.45;;;5.53;;
75997;SDS011;64685;48.762;44.822;2024-03-23T20:37:46;15.27;;;6.57;;
75997;SDS011;64685;48.762;44.822;2024-03-23T20:42:51;12.98;;;5.53;;
75997;SDS011;64685;48.762;44.822;2024-03-23T20:47:53;11.07;;;5.05;;
75997;SDS011;64685;48.762;44.822;2024-03-23T20:52:56;11.20;;;4.72;;
75997;SDS011;64685;48.762;44.822;2024-03-23T20:58:02;11.23;;;5.28;;
75997;SDS011;64685;48.762;44.822;2024-03-23T21:03:07;10.25;;;5.25;;
75997;SDS011;64685;48.762;44.822;2024-03-23T21:08:10;11.50;;;4.90;;
75997;SDS011;64685;48.762;44.822;2024-03-23T21:13:14;11.05;;;4.43;;
75997;SDS011;64685;48.762;44.822;2024-03-23T21:18:20;9.52;;;4.78;;
75997;SDS011;64685;48.762;44.822;2024-03-23T21:23:24;11.45;;;4.75;;
75997;SDS011;64685;48.762;44.822;2024-03-23T21:28:27;10.82;;;5.10;;
75997;SDS011;64685;48.762;44.822;2024-03-23T21:33:29;11.55;;;5.70;;
75997;SDS011;64685;48.762;44.822;2024-03-23T21:38:33;14.85;;;5.32;;
75997;SDS011;64685;48.762;44.822;2024-03-23T21:43:35;14.57;;;6.05;;
75997;SDS011;64685;48.762;44.822;2024-03-23T21:48:38;14.07;;;6.50;;
75997;SDS011;64685;48.762;44.822;2024-03-23T21:53:45;17.08;;;6.68;;
75997;SDS011;64685;48.762;44.822;2024-03-23T21:58:48;12.55;;;5.80;;
75997;SDS011;64685;48.762;44.822;2024-03-23T22:03:50;15.52;;;5.82;;
75997;SDS011;64685;48.762;44.822;2024-03-23T22:08:56;13.98;;;6.00;;
75997;SDS011;64685;48.762;44.822;2024-03-23T22:13:58;9.25;;;5.35;;
75997;SDS011;64685;48.762;44.822;2024-03-23T22:19:04;10.18;;;4.65;;
75997;SDS011;64685;48.762;44.822;2024-03-23T22:24:07;11.45;;;5.15;;
75997;SDS011;64685;48.762;44.822;2024-03-23T22:29:12;13.07;;;5.50;;
75997;SDS011;64685;48.762;44.822;2024-03-23T22:34:14;12.23;;;5.70;;
75997;SDS011;64685;48.762;44.822;2024-03-23T22:39:17;13.55;;;5.10;;
75997;SDS011;64685;48.762;44.822;2024-03-23T22:44:21;13.77;;;5.68;;
75997;SDS011;64685;48.762;44.822;2024-03-23T22:49:24;13.02;;;6.20;;
75997;SDS011;64685;48.762;44.822;2024-03-23T22:54:26;12.88;;;6.40;;
75997;SDS011;64685;48.762;44.822;2024-03-23T22:59:29;14.27;;;5.40;;
75997;SDS011;64685;48.762;44.822;2024-03-23T23:04:34;13.15;;;5.30;;
75997;SDS011;64685;48.762;44.822;2024-03-23T23:09:40;14.27;;;6.05;;
75997;SDS011;64685;48.762;44.822;2024-03-23T23:14:45;14.30;;;6.40;;
75997;SDS011;64685;48.762;44.822;2024-03-23T23:19:47;16.40;;;5.72;;
75997;SDS011;64685;48.762;44.822;2024-03-23T23:24:54;13.40;;;6.40;;
75997;SDS011;64685;48.762;44.822;2024-03-23T23:29:57;14.23;;;5.30;;
75997;SDS011;64685;48.762;44.822;2024-03-23T23:35:02;13.93;;;5.22;;
75997;SDS011;64685;48.762;44.822;2024-03-23T23:40:06;10.65;;;4.68;;
75997;SDS011;64685;48.762;44.822;2024-03-23T23:45:16;14.32;;;5.13;;
75997;SDS011;64685;48.762;44.822;2024-03-23T23:50:19;13.10;;;5.68;;
75997;SDS011;64685;48.762;44.822;2024-03-23T23:55:22;11.73;;;4.95;;
